sensor_id;sensor_type;location;lat;lon;timestamp;temperature;humidity
65985;HTU21D;52748;51.112;5.880;2023-05-10T00:02:09;22.22;90.60
65985;HTU21D;52748;51.112;5.880;2023-05-10T00:04:35;22.21;90.57
65985;HTU21D;52748;51.112;5.880;2023-05-10T00:07:01;22.21;90.61
65985;HTU21D;52748;51.112;5.880;2023-05-10T00:09:27;22.20;90.65
65985;HTU21D;52748;51.112;5.880;2023-05-10T00:11:53;22.21;90.53
65985;HTU21D;52748;51.112;5.880;2023-05-10T00:14:18;22.19;90.45
65985;HTU21D;52748;51.112;5.880;2023-05-10T00:16:44;22.19;90.41
65985;HTU21D;52748;51.112;5.880;2023-05-10T00:19:10;22.20;90.34
65985;HTU21D;52748;51.112;5.880;2023-05-10T00:21:36;22.19;90.47
65985;HTU21D;52748;51.112;5.880;2023-05-10T00:24:02;22.20;90.45
65985;HTU21D;52748;51.112;5.880;2023-05-10T00:26:28;22.19;90.47
65985;HTU21D;52748;51.112;5.880;2023-05-10T00:28:55;22.19;90.53
65985;HTU21D;52748;51.112;5.880;2023-05-10T00:31:22;22.19;90.58
65985;HTU21D;52748;51.112;5.880;2023-05-10T00:33:48;22.18;90.52
65985;HTU21D;52748;51.112;5.880;2023-05-10T00:36:13;22.21;90.33
65985;HTU21D;52748;51.112;5.880;2023-05-10T00:38:40;22.19;90.34
65985;HTU21D;52748;51.112;5.880;2023-05-10T00:41:06;22.18;90.31
65985;HTU21D;52748;51.112;5.880;2023-05-10T00:43:33;22.17;90.44
65985;HTU21D;52748;51.112;5.880;2023-05-10T00:45:59;22.18;90.37
65985;HTU21D;52748;51.112;5.880;2023-05-10T00:48:25;22.18;90.43
65985;HTU21D;52748;51.112;5.880;2023-05-10T00:50:51;22.18;90.37
65985;HTU21D;52748;51.112;5.880;2023-05-10T00:53:18;22.23;89.86
65985;HTU21D;52748;51.112;5.880;2023-05-10T00:55:44;22.24;89.60
65985;HTU21D;52748;51.112;5.880;2023-05-10T00:58:10;22.20;89.81
65985;HTU21D;52748;51.112;5.880;2023-05-10T01:00:37;22.24;89.44
65985;HTU21D;52748;51.112;5.880;2023-05-10T01:03:06;22.21;89.72
65985;HTU21D;52748;51.112;5.880;2023-05-10T01:05:32;22.19;89.97
65985;HTU21D;52748;51.112;5.880;2023-05-10T01:07:58;22.21;89.76
65985;HTU21D;52748;51.112;5.880;2023-05-10T01:10:24;22.20;89.73
65985;HTU21D;52748;51.112;5.880;2023-05-10T01:12:50;22.17;89.99
65985;HTU21D;52748;51.112;5.880;2023-05-10T01:15:17;22.16;90.11
65985;HTU21D;52748;51.112;5.880;2023-05-10T01:17:46;22.16;90.14
65985;HTU21D;52748;51.112;5.880;2023-05-10T01:20:13;22.13;90.18
65985;HTU21D;52748;51.112;5.880;2023-05-10T01:28:52;22.20;89.54
65985;HTU21D;52748;51.112;5.880;2023-05-10T01:32:00;22.22;89.25
65985;HTU21D;52748;51.112;5.880;2023-05-10T01:34:35;22.17;89.42
65985;HTU21D;52748;51.112;5.880;2023-05-10T01:37:17;22.17;89.72
65985;HTU21D;52748;51.112;5.880;2023-05-10T01:40:08;22.13;89.95
65985;HTU21D;52748;51.112;5.880;2023-05-10T01:42:50;22.11;90.03
65985;HTU21D;52748;51.112;5.880;2023-05-10T01:45:28;22.11;90.09
65985;HTU21D;52748;51.112;5.880;2023-05-10T01:48:05;22.11;90.14
65985;HTU21D;52748;51.112;5.880;2023-05-10T01:50:35;22.11;90.10
65985;HTU21D;52748;51.112;5.880;2023-05-10T01:53:02;22.17;89.57
65985;HTU21D;52748;51.112;5.880;2023-05-10T01:55:35;22.16;89.37
65985;HTU21D;52748;51.112;5.880;2023-05-10T01:58:20;22.18;89.33
65985;HTU21D;52748;51.112;5.880;2023-05-10T02:00:49;22.21;88.96
65985;HTU21D;52748;51.112;5.880;2023-05-10T02:03:18;22.20;88.85
65985;HTU21D;52748;51.112;5.880;2023-05-10T02:05:48;22.16;89.19
65985;HTU21D;52748;51.112;5.880;2023-05-10T02:08:17;22.13;89.50
65985;HTU21D;52748;51.112;5.880;2023-05-10T02:10:45;22.17;89.30
65985;HTU21D;52748;51.112;5.880;2023-05-10T02:13:12;22.20;89.01
65985;HTU21D;52748;51.112;5.880;2023-05-10T02:15:41;22.16;89.19
65985;HTU21D;52748;51.112;5.880;2023-05-10T02:18:10;22.13;89.41
65985;HTU21D;52748;51.112;5.880;2023-05-10T02:20:38;22.11;89.52
65985;HTU21D;52748;51.112;5.880;2023-05-10T02:23:05;22.11;89.66
65985;HTU21D;52748;51.112;5.880;2023-05-10T02:25:33;22.10;89.76
65985;HTU21D;52748;51.112;5.880;2023-05-10T02:28:03;22.16;89.27
65985;HTU21D;52748;51.112;5.880;2023-05-10T02:30:31;22.14;89.27
65985;HTU21D;52748;51.112;5.880;2023-05-10T02:32:59;22.17;88.86
65985;HTU21D;52748;51.112;5.880;2023-05-10T02:35:26;22.23;88.28
65985;HTU21D;52748;51.112;5.880;2023-05-10T02:37:54;22.20;88.35
65985;HTU21D;52748;51.112;5.880;2023-05-10T02:40:22;22.20;88.28
65985;HTU21D;52748;51.112;5.880;2023-05-10T02:42:54;22.20;88.23
65985;HTU21D;52748;51.112;5.880;2023-05-10T02:45:26;22.19;88.25
65985;HTU21D;52748;51.112;5.880;2023-05-10T02:47:54;22.14;88.76
65985;HTU21D;52748;51.112;5.880;2023-05-10T02:50:22;22.10;89.03
65985;HTU21D;52748;51.112;5.880;2023-05-10T02:52:51;22.09;89.34
65985;HTU21D;52748;51.112;5.880;2023-05-10T02:55:22;22.07;89.41
65985;HTU21D;52748;51.112;5.880;2023-05-10T02:57:56;22.07;89.64
65985;HTU21D;52748;51.112;5.880;2023-05-10T03:00:24;22.06;89.69
65985;HTU21D;52748;51.112;5.880;2023-05-10T03:02:50;22.06;89.74
65985;HTU21D;52748;51.112;5.880;2023-05-10T03:05:16;22.05;89.69
65985;HTU21D;52748;51.112;5.880;2023-05-10T03:07:43;22.06;89.65
65985;HTU21D;52748;51.112;5.880;2023-05-10T03:10:09;22.04;89.71
65985;HTU21D;52748;51.112;5.880;2023-05-10T03:18:15;22.11;88.76
65985;HTU21D;52748;51.112;5.880;2023-05-10T03:20:47;22.07;89.09
65985;HTU21D;52748;51.112;5.880;2023-05-10T03:25:43;22.06;89.28
65985;HTU21D;52748;51.112;5.880;2023-05-10T03:28:12;22.06;89.33
65985;HTU21D;52748;51.112;5.880;2023-05-10T03:30:39;22.10;88.76
65985;HTU21D;52748;51.112;5.880;2023-05-10T03:33:07;22.09;88.73
65985;HTU21D;52748;51.112;5.880;2023-05-10T03:35:36;22.09;88.55
65985;HTU21D;52748;51.112;5.880;2023-05-10T03:38:02;22.06;88.84
65985;HTU21D;52748;51.112;5.880;2023-05-10T03:40:28;22.08;88.57
65985;HTU21D;52748;51.112;5.880;2023-05-10T03:42:55;22.12;88.16
65985;HTU21D;52748;51.112;5.880;2023-05-10T03:45:21;22.13;88.21
65985;HTU21D;52748;51.112;5.880;2023-05-10T03:47:46;22.12;88.01
65985;HTU21D;52748;51.112;5.880;2023-05-10T03:50:12;22.07;88.51
65985;HTU21D;52748;51.112;5.880;2023-05-10T03:52:38;22.05;88.91
65985;HTU21D;52748;51.112;5.880;2023-05-10T03:55:06;22.04;89.13
65985;HTU21D;52748;51.112;5.880;2023-05-10T03:57:33;22.04;89.18
65985;HTU21D;52748;51.112;5.880;2023-05-10T03:59:59;22.09;88.54
65985;HTU21D;52748;51.112;5.880;2023-05-10T04:02:25;22.11;88.15
65985;HTU21D;52748;51.112;5.880;2023-05-10T04:04:52;22.11;87.99
65985;HTU21D;52748;51.112;5.880;2023-05-10T04:07:18;22.09;88.17
65985;HTU21D;52748;51.112;5.880;2023-05-10T04:09:43;22.06;88.31
65985;HTU21D;52748;51.112;5.880;2023-05-10T04:12:09;22.06;88.49
65985;HTU21D;52748;51.112;5.880;2023-05-10T04:14:35;22.04;88.70
65985;HTU21D;52748;51.112;5.880;2023-05-10T04:17:01;22.02;88.83
65985;HTU21D;52748;51.112;5.880;2023-05-10T04:19:30;21.99;88.90
65985;HTU21D;52748;51.112;5.880;2023-05-10T04:21:57;22.05;88.71
65985;HTU21D;52748;51.112;5.880;2023-05-10T04:24:23;22.08;88.17
65985;HTU21D;52748;51.112;5.880;2023-05-10T04:26:49;22.09;87.91
65985;HTU21D;52748;51.112;5.880;2023-05-10T04:29:15;22.10;87.80
65985;HTU21D;52748;51.112;5.880;2023-05-10T04:31:40;22.11;87.65
65985;HTU21D;52748;51.112;5.880;2023-05-10T04:34:06;22.11;87.61
65985;HTU21D;52748;51.112;5.880;2023-05-10T04:36:32;22.08;87.70
65985;HTU21D;52748;51.112;5.880;2023-05-10T04:39:01;22.07;87.87
65985;HTU21D;52748;51.112;5.880;2023-05-10T04:41:28;22.03;88.35
65985;HTU21D;52748;51.112;5.880;2023-05-10T04:43:54;22.01;88.63
65985;HTU21D;52748;51.112;5.880;2023-05-10T04:46:20;22.06;88.22
65985;HTU21D;52748;51.112;5.880;2023-05-10T04:48:46;22.04;88.20
65985;HTU21D;52748;51.112;5.880;2023-05-10T04:51:11;22.05;88.21
65985;HTU21D;52748;51.112;5.880;2023-05-10T04:53:37;22.06;87.89
65985;HTU21D;52748;51.112;5.880;2023-05-10T04:56:03;22.05;87.80
65985;HTU21D;52748;51.112;5.880;2023-05-10T04:58:29;22.02;88.25
65985;HTU21D;52748;51.112;5.880;2023-05-10T05:00:55;21.99;88.54
65985;HTU21D;52748;51.112;5.880;2023-05-10T05:03:21;22.03;88.21
65985;HTU21D;52748;51.112;5.880;2023-05-10T05:05:50;22.06;87.86
65985;HTU21D;52748;51.112;5.880;2023-05-10T05:08:15;22.07;87.61
65985;HTU21D;52748;51.112;5.880;2023-05-10T05:10:41;22.06;87.57
65985;HTU21D;52748;51.112;5.880;2023-05-10T05:13:07;22.02;87.95
65985;HTU21D;52748;51.112;5.880;2023-05-10T05:15:33;22.02;88.03
65985;HTU21D;52748;51.112;5.880;2023-05-10T05:17:58;22.02;88.00
65985;HTU21D;52748;51.112;5.880;2023-05-10T05:20:24;21.99;88.12
65985;HTU21D;52748;51.112;5.880;2023-05-10T05:22:50;21.97;88.15
65985;HTU21D;52748;51.112;5.880;2023-05-10T05:25:16;21.97;88.26
65985;HTU21D;52748;51.112;5.880;2023-05-10T05:27:41;21.98;88.18
65985;HTU21D;52748;51.112;5.880;2023-05-10T05:30:08;21.95;83.71
65985;HTU21D;52748;51.112;5.880;2023-05-10T05:32:34;21.96;79.80
65985;HTU21D;52748;51.112;5.880;2023-05-10T05:34:59;21.85;78.05
65985;HTU21D;52748;51.112;5.880;2023-05-10T05:37:25;21.73;76.65
65985;HTU21D;52748;51.112;5.880;2023-05-10T05:39:51;21.59;76.41
65985;HTU21D;52748;51.112;5.880;2023-05-10T05:42:17;21.46;76.37
65985;HTU21D;52748;51.112;5.880;2023-05-10T05:44:44;21.39;76.33
65985;HTU21D;52748;51.112;5.880;2023-05-10T05:47:10;21.35;76.25
65985;HTU21D;52748;51.112;5.880;2023-05-10T05:49:36;21.29;76.18
65985;HTU21D;52748;51.112;5.880;2023-05-10T05:52:03;21.21;76.32
65985;HTU21D;52748;51.112;5.880;2023-05-10T05:54:30;21.16;76.63
65985;HTU21D;52748;51.112;5.880;2023-05-10T05:57:00;21.17;76.83
65985;HTU21D;52748;51.112;5.880;2023-05-10T05:59:26;21.18;78.54
65985;HTU21D;52748;51.112;5.880;2023-05-10T06:01:52;21.16;77.35
65985;HTU21D;52748;51.112;5.880;2023-05-10T06:04:18;21.16;77.95
65985;HTU21D;52748;51.112;5.880;2023-05-10T06:06:44;21.25;80.27
65985;HTU21D;52748;51.112;5.880;2023-05-10T06:09:10;21.42;81.36
65985;HTU21D;52748;51.112;5.880;2023-05-10T06:11:37;21.58;81.28
65985;HTU21D;52748;51.112;5.880;2023-05-10T06:14:04;21.78;80.61
65985;HTU21D;52748;51.112;5.880;2023-05-10T06:16:30;21.93;80.14
65985;HTU21D;52748;51.112;5.880;2023-05-10T06:18:56;22.07;79.81
65985;HTU21D;52748;51.112;5.880;2023-05-10T06:21:22;22.16;79.89
65985;HTU21D;52748;51.112;5.880;2023-05-10T06:23:48;22.28;79.75
65985;HTU21D;52748;51.112;5.880;2023-05-10T06:26:14;22.40;79.58
65985;HTU21D;52748;51.112;5.880;2023-05-10T06:28:39;22.41;79.79
65985;HTU21D;52748;51.112;5.880;2023-05-10T06:31:06;22.48;80.10
65985;HTU21D;52748;51.112;5.880;2023-05-10T06:33:33;22.53;80.27
65985;HTU21D;52748;51.112;5.880;2023-05-10T06:35:59;22.60;80.36
65985;HTU21D;52748;51.112;5.880;2023-05-10T06:38:25;22.64;80.52
65985;HTU21D;52748;51.112;5.880;2023-05-10T06:40:51;22.70;80.53
65985;HTU21D;52748;51.112;5.880;2023-05-10T06:43:17;22.76;80.62
65985;HTU21D;52748;51.112;5.880;2023-05-10T06:45:43;22.78;80.66
65985;HTU21D;52748;51.112;5.880;2023-05-10T06:48:09;22.81;80.81
65985;HTU21D;52748;51.112;5.880;2023-05-10T06:50:35;22.91;80.49
65985;HTU21D;52748;51.112;5.880;2023-05-10T06:53:01;22.98;80.27
65985;HTU21D;52748;51.112;5.880;2023-05-10T06:55:29;23.01;80.32
65985;HTU21D;52748;51.112;5.880;2023-05-10T06:57:55;23.05;80.36
65985;HTU21D;52748;51.112;5.880;2023-05-10T07:00:21;23.08;80.49
65985;HTU21D;52748;51.112;5.880;2023-05-10T07:02:47;23.12;80.34
65985;HTU21D;52748;51.112;5.880;2023-05-10T07:05:13;23.14;80.43
65985;HTU21D;52748;51.112;5.880;2023-05-10T07:07:39;23.10;80.96
65985;HTU21D;52748;51.112;5.880;2023-05-10T07:10:06;23.12;81.23
65985;HTU21D;52748;51.112;5.880;2023-05-10T07:12:33;23.13;81.51
65985;HTU21D;52748;51.112;5.880;2023-05-10T07:14:59;23.12;81.72
65985;HTU21D;52748;51.112;5.880;2023-05-10T07:17:24;23.14;81.88
65985;HTU21D;52748;51.112;5.880;2023-05-10T07:19:50;23.21;81.52
65985;HTU21D;52748;51.112;5.880;2023-05-10T07:22:16;23.26;81.27
65985;HTU21D;52748;51.112;5.880;2023-05-10T07:24:43;23.26;81.33
65985;HTU21D;52748;51.112;5.880;2023-05-10T07:27:09;23.27;81.39
65985;HTU21D;52748;51.112;5.880;2023-05-10T07:29:35;23.30;81.45
65985;HTU21D;52748;51.112;5.880;2023-05-10T07:32:01;23.27;81.81
65985;HTU21D;52748;51.112;5.880;2023-05-10T07:34:27;23.27;82.02
65985;HTU21D;52748;51.112;5.880;2023-05-10T07:36:53;23.27;82.16
65985;HTU21D;52748;51.112;5.880;2023-05-10T07:39:19;23.28;82.29
65985;HTU21D;52748;51.112;5.880;2023-05-10T07:41:46;23.29;82.31
65985;HTU21D;52748;51.112;5.880;2023-05-10T07:44:11;23.32;82.13
65985;HTU21D;52748;51.112;5.880;2023-05-10T07:46:37;23.39;81.62
65985;HTU21D;52748;51.112;5.880;2023-05-10T07:49:03;23.38;81.52
65985;HTU21D;52748;51.112;5.880;2023-05-10T07:51:29;23.43;81.19
65985;HTU21D;52748;51.112;5.880;2023-05-10T07:53:55;23.46;80.80
65985;HTU21D;52748;51.112;5.880;2023-05-10T07:56:23;23.44;80.54
65985;HTU21D;52748;51.112;5.880;2023-05-10T07:58:51;23.40;80.64
65985;HTU21D;52748;51.112;5.880;2023-05-10T08:01:17;23.31;76.92
65985;HTU21D;52748;51.112;5.880;2023-05-10T08:03:43;23.15;71.60
65985;HTU21D;52748;51.112;5.880;2023-05-10T08:06:09;22.96;69.38
65985;HTU21D;52748;51.112;5.880;2023-05-10T08:08:35;22.81;69.52
65985;HTU21D;52748;51.112;5.880;2023-05-10T08:11:01;22.68;72.02
65985;HTU21D;52748;51.112;5.880;2023-05-10T08:13:26;22.60;73.17
65985;HTU21D;52748;51.112;5.880;2023-05-10T08:15:52;22.58;73.85
65985;HTU21D;52748;51.112;5.880;2023-05-10T08:18:19;22.54;74.54
65985;HTU21D;52748;51.112;5.880;2023-05-10T08:20:45;22.51;75.86
65985;HTU21D;52748;51.112;5.880;2023-05-10T08:23:14;22.57;76.32
65985;HTU21D;52748;51.112;5.880;2023-05-10T08:25:40;22.69;75.96
65985;HTU21D;52748;51.112;5.880;2023-05-10T08:28:06;22.80;75.54
65985;HTU21D;52748;51.112;5.880;2023-05-10T08:30:32;22.87;75.20
65985;HTU21D;52748;51.112;5.880;2023-05-10T08:32:57;22.86;75.42
65985;HTU21D;52748;51.112;5.880;2023-05-10T08:35:23;22.92;75.41
65985;HTU21D;52748;51.112;5.880;2023-05-10T08:37:50;22.96;75.49
65985;HTU21D;52748;51.112;5.880;2023-05-10T08:40:19;22.99;75.53
65985;HTU21D;52748;51.112;5.880;2023-05-10T08:42:58;23.01;75.50
65985;HTU21D;52748;51.112;5.880;2023-05-10T08:45:24;23.06;75.50
65985;HTU21D;52748;51.112;5.880;2023-05-10T08:47:53;23.06;75.54
65985;HTU21D;52748;51.112;5.880;2023-05-10T08:50:20;23.12;75.47
65985;HTU21D;52748;51.112;5.880;2023-05-10T08:52:50;23.20;74.97
65985;HTU21D;52748;51.112;5.880;2023-05-10T08:55:18;23.22;74.57
65985;HTU21D;52748;51.112;5.880;2023-05-10T08:57:44;23.25;74.38
65985;HTU21D;52748;51.112;5.880;2023-05-10T09:00:11;23.28;74.28
65985;HTU21D;52748;51.112;5.880;2023-05-10T09:02:37;23.29;74.15
65985;HTU21D;52748;51.112;5.880;2023-05-10T09:05:03;23.29;74.31
65985;HTU21D;52748;51.112;5.880;2023-05-10T09:07:30;23.25;74.59
65985;HTU21D;52748;51.112;5.880;2023-05-10T09:09:57;23.25;74.73
65985;HTU21D;52748;51.112;5.880;2023-05-10T09:12:23;23.27;74.70
65985;HTU21D;52748;51.112;5.880;2023-05-10T09:14:52;23.27;74.73
65985;HTU21D;52748;51.112;5.880;2023-05-10T09:17:22;23.32;74.38
65985;HTU21D;52748;51.112;5.880;2023-05-10T09:19:48;23.35;74.10
65985;HTU21D;52748;51.112;5.880;2023-05-10T09:22:14;23.38;73.89
65985;HTU21D;52748;51.112;5.880;2023-05-10T09:24:42;23.34;74.05
65985;HTU21D;52748;51.112;5.880;2023-05-10T09:27:10;23.30;73.15
65985;HTU21D;52748;51.112;5.880;2023-05-10T09:29:41;23.21;69.32
65985;HTU21D;52748;51.112;5.880;2023-05-10T09:32:07;23.11;69.32
65985;HTU21D;52748;51.112;5.880;2023-05-10T09:34:33;23.07;70.55
65985;HTU21D;52748;51.112;5.880;2023-05-10T09:37:02;23.06;71.54
65985;HTU21D;52748;51.112;5.880;2023-05-10T09:39:33;23.07;72.25
65985;HTU21D;52748;51.112;5.880;2023-05-10T09:42:01;23.09;72.51
65985;HTU21D;52748;51.112;5.880;2023-05-10T09:44:26;23.05;73.28
65985;HTU21D;52748;51.112;5.880;2023-05-10T09:46:52;23.05;73.82
65985;HTU21D;52748;51.112;5.880;2023-05-10T09:49:20;23.05;74.27
65985;HTU21D;52748;51.112;5.880;2023-05-10T09:51:46;23.08;74.35
65985;HTU21D;52748;51.112;5.880;2023-05-10T09:54:14;23.09;74.67
65985;HTU21D;52748;51.112;5.880;2023-05-10T09:56:41;23.00;75.77
65985;HTU21D;52748;51.112;5.880;2023-05-10T09:59:11;22.95;76.63
65985;HTU21D;52748;51.112;5.880;2023-05-10T10:01:38;22.84;77.61
65985;HTU21D;52748;51.112;5.880;2023-05-10T10:04:10;22.78;78.45
65985;HTU21D;52748;51.112;5.880;2023-05-10T10:06:40;22.78;78.53
65985;HTU21D;52748;51.112;5.880;2023-05-10T10:09:07;22.76;78.75
65985;HTU21D;52748;51.112;5.880;2023-05-10T10:11:36;22.72;78.34
65985;HTU21D;52748;51.112;5.880;2023-05-10T10:14:02;22.68;77.60
65985;HTU21D;52748;51.112;5.880;2023-05-10T10:16:29;22.62;77.97
65985;HTU21D;52748;51.112;5.880;2023-05-10T10:18:56;22.55;78.37
65985;HTU21D;52748;51.112;5.880;2023-05-10T10:21:23;22.56;78.59
65985;HTU21D;52748;51.112;5.880;2023-05-10T10:23:49;22.56;78.34
65985;HTU21D;52748;51.112;5.880;2023-05-10T10:26:17;22.52;79.32
65985;HTU21D;52748;51.112;5.880;2023-05-10T10:28:51;22.48;79.19
65985;HTU21D;52748;51.112;5.880;2023-05-10T10:31:36;22.49;79.26
65985;HTU21D;52748;51.112;5.880;2023-05-10T10:34:25;22.48;79.24
65985;HTU21D;52748;51.112;5.880;2023-05-10T10:36:54;22.49;79.43
65985;HTU21D;52748;51.112;5.880;2023-05-10T10:39:20;22.49;78.94
65985;HTU21D;52748;51.112;5.880;2023-05-10T10:41:52;22.47;79.33
65985;HTU21D;52748;51.112;5.880;2023-05-10T10:49:52;22.37;78.39
65985;HTU21D;52748;51.112;5.880;2023-05-10T10:52:41;22.41;78.16
65985;HTU21D;52748;51.112;5.880;2023-05-10T10:55:12;22.46;78.69
65985;HTU21D;52748;51.112;5.880;2023-05-10T10:57:50;22.43;79.69
65985;HTU21D;52748;51.112;5.880;2023-05-10T11:00:21;22.44;80.26
65985;HTU21D;52748;51.112;5.880;2023-05-10T11:02:52;22.46;80.61
65985;HTU21D;52748;51.112;5.880;2023-05-10T11:07:57;22.50;80.67
65985;HTU21D;52748;51.112;5.880;2023-05-10T11:10:24;22.50;80.62
65985;HTU21D;52748;51.112;5.880;2023-05-10T11:13:03;22.49;80.92
65985;HTU21D;52748;51.112;5.880;2023-05-10T11:15:31;22.43;81.54
65985;HTU21D;52748;51.112;5.880;2023-05-10T11:17:58;22.48;81.62
65985;HTU21D;52748;51.112;5.880;2023-05-10T11:20:38;22.43;81.72
65985;HTU21D;52748;51.112;5.880;2023-05-10T11:23:12;22.42;81.87
65985;HTU21D;52748;51.112;5.880;2023-05-10T11:25:45;22.43;81.59
65985;HTU21D;52748;51.112;5.880;2023-05-10T11:28:11;22.42;79.01
65985;HTU21D;52748;51.112;5.880;2023-05-10T11:30:39;22.46;74.49
65985;HTU21D;52748;51.112;5.880;2023-05-10T11:33:06;22.46;75.12
65985;HTU21D;52748;51.112;5.880;2023-05-10T11:35:40;22.50;75.63
65985;HTU21D;52748;51.112;5.880;2023-05-10T11:38:07;22.52;75.90
65985;HTU21D;52748;51.112;5.880;2023-05-10T11:40:34;22.56;76.59
65985;HTU21D;52748;51.112;5.880;2023-05-10T11:43:01;22.58;77.04
65985;HTU21D;52748;51.112;5.880;2023-05-10T11:45:27;22.58;77.72
65985;HTU21D;52748;51.112;5.880;2023-05-10T11:47:55;22.54;78.05
65985;HTU21D;52748;51.112;5.880;2023-05-10T11:50:21;22.55;78.59
65985;HTU21D;52748;51.112;5.880;2023-05-10T11:52:51;22.60;78.79
65985;HTU21D;52748;51.112;5.880;2023-05-10T11:55:17;22.65;78.71
65985;HTU21D;52748;51.112;5.880;2023-05-10T11:57:43;22.64;79.14
65985;HTU21D;52748;51.112;5.880;2023-05-10T12:00:12;22.65;79.33
65985;HTU21D;52748;51.112;5.880;2023-05-10T12:02:39;22.67;79.46
65985;HTU21D;52748;51.112;5.880;2023-05-10T12:05:07;22.69;79.56
65985;HTU21D;52748;51.112;5.880;2023-05-10T12:07:36;22.77;79.10
65985;HTU21D;52748;51.112;5.880;2023-05-10T12:10:13;22.82;78.86
65985;HTU21D;52748;51.112;5.880;2023-05-10T12:12:45;22.85;78.75
65985;HTU21D;52748;51.112;5.880;2023-05-10T12:15:17;22.87;78.50
65985;HTU21D;52748;51.112;5.880;2023-05-10T12:17:45;22.84;78.85
65985;HTU21D;52748;51.112;5.880;2023-05-10T12:20:19;22.83;79.16
65985;HTU21D;52748;51.112;5.880;2023-05-10T12:22:50;22.86;79.27
65985;HTU21D;52748;51.112;5.880;2023-05-10T12:25:22;22.94;78.99
65985;HTU21D;52748;51.112;5.880;2023-05-10T12:27:55;22.96;78.69
65985;HTU21D;52748;51.112;5.880;2023-05-10T12:30:25;22.94;78.86
65985;HTU21D;52748;51.112;5.880;2023-05-10T12:32:52;22.98;78.82
65985;HTU21D;52748;51.112;5.880;2023-05-10T12:35:19;22.93;79.21
65985;HTU21D;52748;51.112;5.880;2023-05-10T12:37:50;22.93;79.42
65985;HTU21D;52748;51.112;5.880;2023-05-10T12:40:16;22.93;79.42
65985;HTU21D;52748;51.112;5.880;2023-05-10T12:42:43;22.93;79.46
65985;HTU21D;52748;51.112;5.880;2023-05-10T12:45:13;23.01;79.04
65985;HTU21D;52748;51.112;5.880;2023-05-10T12:47:38;23.05;78.82
65985;HTU21D;52748;51.112;5.880;2023-05-10T12:50:05;23.07;78.66
65985;HTU21D;52748;51.112;5.880;2023-05-10T12:52:31;23.07;78.53
65985;HTU21D;52748;51.112;5.880;2023-05-10T12:54:58;23.09;78.40
65985;HTU21D;52748;51.112;5.880;2023-05-10T12:57:25;23.01;78.82
65985;HTU21D;52748;51.112;5.880;2023-05-10T12:59:51;23.01;78.93
65985;HTU21D;52748;51.112;5.880;2023-05-10T13:02:17;22.98;79.06
65985;HTU21D;52748;51.112;5.880;2023-05-10T13:04:46;22.94;79.53
65985;HTU21D;52748;51.112;5.880;2023-05-10T13:07:12;22.92;79.86
65985;HTU21D;52748;51.112;5.880;2023-05-10T13:09:39;22.94;79.83
65985;HTU21D;52748;51.112;5.880;2023-05-10T13:12:05;22.96;79.63
65985;HTU21D;52748;51.112;5.880;2023-05-10T13:14:31;22.95;79.43
65985;HTU21D;52748;51.112;5.880;2023-05-10T13:16:57;22.92;79.72
65985;HTU21D;52748;51.112;5.880;2023-05-10T13:19:23;22.87;80.17
65985;HTU21D;52748;51.112;5.880;2023-05-10T13:21:48;22.84;80.44
65985;HTU21D;52748;51.112;5.880;2023-05-10T13:24:14;22.84;80.61
65985;HTU21D;52748;51.112;5.880;2023-05-10T13:26:40;22.82;80.78
65985;HTU21D;52748;51.112;5.880;2023-05-10T13:29:07;22.87;80.41
65985;HTU21D;52748;51.112;5.880;2023-05-10T13:31:33;22.88;80.06
65985;HTU21D;52748;51.112;5.880;2023-05-10T13:34:00;22.91;79.84
65985;HTU21D;52748;51.112;5.880;2023-05-10T13:36:25;22.92;79.81
65985;HTU21D;52748;51.112;5.880;2023-05-10T13:38:51;22.93;79.79
65985;HTU21D;52748;51.112;5.880;2023-05-10T13:41:17;22.92;79.75
65985;HTU21D;52748;51.112;5.880;2023-05-10T13:43:43;22.86;80.07
65985;HTU21D;52748;51.112;5.880;2023-05-10T13:46:09;22.86;80.36
65985;HTU21D;52748;51.112;5.880;2023-05-10T13:48:35;22.82;80.65
65985;HTU21D;52748;51.112;5.880;2023-05-10T13:51:02;22.80;80.91
65985;HTU21D;52748;51.112;5.880;2023-05-10T13:53:28;22.80;81.04
65985;HTU21D;52748;51.112;5.880;2023-05-10T13:55:54;22.83;80.72
65985;HTU21D;52748;51.112;5.880;2023-05-10T13:58:20;22.84;80.55
65985;HTU21D;52748;51.112;5.880;2023-05-10T14:00:46;22.79;80.87
65985;HTU21D;52748;51.112;5.880;2023-05-10T14:03:11;22.78;81.04
65985;HTU21D;52748;51.112;5.880;2023-05-10T14:05:37;22.77;81.18
65985;HTU21D;52748;51.112;5.880;2023-05-10T14:08:03;22.76;81.35
65985;HTU21D;52748;51.112;5.880;2023-05-10T14:10:29;22.77;81.40
65985;HTU21D;52748;51.112;5.880;2023-05-10T14:12:55;22.76;81.48
65985;HTU21D;52748;51.112;5.880;2023-05-10T14:15:21;22.76;81.44
65985;HTU21D;52748;51.112;5.880;2023-05-10T14:17:47;22.76;81.27
65985;HTU21D;52748;51.112;5.880;2023-05-10T14:20:13;22.76;81.20
65985;HTU21D;52748;51.112;5.880;2023-05-10T14:22:39;22.78;80.88
65985;HTU21D;52748;51.112;5.880;2023-05-10T14:25:06;22.73;81.84
65985;HTU21D;52748;51.112;5.880;2023-05-10T14:27:32;22.69;82.32
65985;HTU21D;52748;51.112;5.880;2023-05-10T14:29:58;22.68;83.36
65985;HTU21D;52748;51.112;5.880;2023-05-10T14:32:23;22.70;84.23
65985;HTU21D;52748;51.112;5.880;2023-05-10T14:34:49;22.68;84.50
65985;HTU21D;52748;51.112;5.880;2023-05-10T14:37:15;22.70;84.23
65985;HTU21D;52748;51.112;5.880;2023-05-10T14:39:41;22.70;83.79
65985;HTU21D;52748;51.112;5.880;2023-05-10T14:42:09;22.71;80.23
65985;HTU21D;52748;51.112;5.880;2023-05-10T14:44:34;22.67;75.86
65985;HTU21D;52748;51.112;5.880;2023-05-10T14:47:00;22.64;74.30
65985;HTU21D;52748;51.112;5.880;2023-05-10T14:49:26;22.58;74.76
65985;HTU21D;52748;51.112;5.880;2023-05-10T14:51:52;22.57;76.08
65985;HTU21D;52748;51.112;5.880;2023-05-10T14:54:18;22.57;77.86
65985;HTU21D;52748;51.112;5.880;2023-05-10T14:56:44;22.61;78.62
65985;HTU21D;52748;51.112;5.880;2023-05-10T14:59:10;22.64;79.18
65985;HTU21D;52748;51.112;5.880;2023-05-10T15:01:36;22.68;79.22
65985;HTU21D;52748;51.112;5.880;2023-05-10T15:04:04;22.73;79.16
65985;HTU21D;52748;51.112;5.880;2023-05-10T15:06:34;22.76;78.26
65985;HTU21D;52748;51.112;5.880;2023-05-10T15:09:02;22.73;73.61
65985;HTU21D;52748;51.112;5.880;2023-05-10T15:11:29;22.71;70.74
65985;HTU21D;52748;51.112;5.880;2023-05-10T15:13:55;22.68;68.45
65985;HTU21D;52748;51.112;5.880;2023-05-10T15:16:21;22.68;66.89
65985;HTU21D;52748;51.112;5.880;2023-05-10T15:18:46;22.68;66.46
65985;HTU21D;52748;51.112;5.880;2023-05-10T15:21:13;22.63;66.24
65985;HTU21D;52748;51.112;5.880;2023-05-10T15:23:39;22.63;66.39
65985;HTU21D;52748;51.112;5.880;2023-05-10T15:26:05;22.64;65.92
65985;HTU21D;52748;51.112;5.880;2023-05-10T15:28:33;22.63;66.01
65985;HTU21D;52748;51.112;5.880;2023-05-10T15:30:59;22.61;66.01
65985;HTU21D;52748;51.112;5.880;2023-05-10T15:33:26;22.62;65.17
65985;HTU21D;52748;51.112;5.880;2023-05-10T15:35:53;22.68;65.07
65985;HTU21D;52748;51.112;5.880;2023-05-10T15:38:19;22.67;64.68
65985;HTU21D;52748;51.112;5.880;2023-05-10T15:40:45;22.64;69.21